DAL1997 KSBP-KLAS
Flight info
| Callsign | DAL1997 |
|---|---|
| Flight time | 0h 59m |
| Altitude | 35000 |
| Route | DERBB MARIC PMD HELDE MISEN RNDRZ4 |
| Aircraft | A21N/M-SDE2E3FGHIRWXY/LB1 |
Departure
| Time | 2026-05-08 02:00 |
|---|---|
| Airport | San Luis County Regional Airport (KSBP) |
Arrival
| Time | 2026-05-08 02:59 |
|---|---|
| Airport | Harry Reid International Airport (KLAS) |
| Time | Latitude | Longitude | Altitude | Speed | Heading |
|---|---|---|---|---|---|
| 2026-05-08 01:44 | 35.23783 | -120.63745 | 207 ft | 0 kts | 228° |
| 2026-05-08 01:53 | 35.23787 | -120.63740 | 207 ft | 2 kts | 234° |
| 2026-05-08 01:54 | 35.23794 | -120.63695 | 215 ft | 8 kts | 218° |
| 2026-05-08 01:54 | 35.23800 | -120.63690 | 210 ft | 0 kts | 214° |
| 2026-05-08 01:55 | 35.23798 | -120.63691 | 210 ft | 2 kts | 214° |
| 2026-05-08 01:55 | 35.23778 | -120.63708 | 214 ft | 6 kts | 214° |
| 2026-05-08 01:55 | 35.23733 | -120.63745 | 210 ft | 8 kts | 213° |
| 2026-05-08 01:56 | 35.23690 | -120.63781 | 213 ft | 7 kts | 213° |
| 2026-05-08 01:56 | 35.23660 | -120.63776 | 214 ft | 4 kts | 145° |
| 2026-05-08 01:56 | 35.23633 | -120.63733 | 211 ft | 8 kts | 125° |
| 2026-05-08 01:56 | 35.23588 | -120.63655 | 213 ft | 12 kts | 125° |
| 2026-05-08 01:57 | 35.23539 | -120.63569 | 216 ft | 12 kts | 124° |
| 2026-05-08 01:57 | 35.23492 | -120.63487 | 222 ft | 12 kts | 124° |
| 2026-05-08 01:57 | 35.23427 | -120.63372 | 229 ft | 15 kts | 125° |
| 2026-05-08 01:57 | 35.23383 | -120.63295 | 225 ft | 9 kts | 122° |
| 2026-05-08 01:58 | 35.23334 | -120.63242 | 227 ft | 10 kts | 174° |
| 2026-05-08 01:58 | 35.23328 | -120.63243 | 227 ft | 0 kts | 188° |
| 2026-05-08 01:58 | 35.23322 | -120.63246 | 227 ft | 0 kts | 199° |
| 2026-05-08 01:59 | 35.23308 | -120.63255 | 229 ft | 12 kts | 211° |
| 2026-05-08 01:59 | 35.23285 | -120.63343 | 225 ft | 11 kts | 319° |
| 2026-05-08 01:59 | 35.23470 | -120.63618 | 219 ft | 78 kts | 304° |
| 2026-05-08 01:59 | 35.23934 | -120.64437 | 200 ft | 153 kts | 306° |
| 2026-05-08 02:00 | 35.24604 | -120.65593 | 669 ft | 173 kts | 305° |
| 2026-05-08 02:00 | 35.25345 | -120.66901 | 1202 ft | 202 kts | 304° |
| 2026-05-08 02:00 | 35.26184 | -120.68388 | 1713 ft | 228 kts | 304° |
| 2026-05-08 02:00 | 35.27144 | -120.70083 | 2177 ft | 253 kts | 304° |
| 2026-05-08 02:01 | 35.28162 | -120.71877 | 3014 ft | 255 kts | 305° |
| 2026-05-08 02:01 | 35.29172 | -120.73655 | 3740 ft | 259 kts | 306° |
| 2026-05-08 02:01 | 35.30205 | -120.75478 | 4531 ft | 259 kts | 306° |
| 2026-05-08 02:01 | 35.31229 | -120.77285 | 5386 ft | 256 kts | 307° |
| 2026-05-08 02:02 | 35.32251 | -120.79086 | 6145 ft | 258 kts | 307° |
| 2026-05-08 02:02 | 35.33285 | -120.80906 | 6821 ft | 261 kts | 306° |
| 2026-05-08 02:02 | 35.34314 | -120.82720 | 7489 ft | 263 kts | 306° |
| 2026-05-08 02:02 | 35.35353 | -120.84568 | 8168 ft | 265 kts | 302° |
| 2026-05-08 02:03 | 35.35939 | -120.86701 | 8808 ft | 268 kts | 271° |
| 2026-05-08 02:03 | 35.35448 | -120.88886 | 9442 ft | 271 kts | 237° |
| 2026-05-08 02:03 | 35.34021 | -120.90380 | 10105 ft | 275 kts | 204° |
| 2026-05-08 02:03 | 35.32180 | -120.91087 | 10699 ft | 278 kts | 197° |
| 2026-05-08 02:04 | 35.30306 | -120.91645 | 11220 ft | 284 kts | 185° |
| 2026-05-08 02:04 | 35.28360 | -120.91186 | 11732 ft | 290 kts | 152° |
| 2026-05-08 02:04 | 35.26892 | -120.89519 | 12266 ft | 293 kts | 120° |
| 2026-05-08 02:04 | 35.26333 | -120.87142 | 12848 ft | 293 kts | 93° |
| 2026-05-08 02:05 | 35.26258 | -120.84620 | 13320 ft | 300 kts | 92° |
| 2026-05-08 02:05 | 35.26081 | -120.82090 | 13859 ft | 303 kts | 97° |
| 2026-05-08 02:05 | 35.25742 | -120.79525 | 14372 ft | 306 kts | 101° |
| 2026-05-08 02:05 | 35.25291 | -120.76962 | 14861 ft | 309 kts | 101° |
| 2026-05-08 02:06 | 35.25009 | -120.74348 | 15351 ft | 311 kts | 92° |
| 2026-05-08 02:06 | 35.24970 | -120.71696 | 15849 ft | 313 kts | 88° |
| 2026-05-08 02:06 | 35.25039 | -120.69044 | 16349 ft | 315 kts | 86° |
| 2026-05-08 02:06 | 35.25142 | -120.66346 | 16843 ft | 318 kts | 86° |
| 2026-05-08 02:07 | 35.25235 | -120.63629 | 17332 ft | 320 kts | 87° |
| 2026-05-08 02:07 | 35.25305 | -120.60916 | 17820 ft | 323 kts | 88° |
| 2026-05-08 02:07 | 35.25352 | -120.58160 | 18293 ft | 325 kts | 88° |
| 2026-05-08 02:07 | 35.25382 | -120.55372 | 18712 ft | 328 kts | 88° |
| 2026-05-08 02:08 | 35.25402 | -120.52562 | 19131 ft | 330 kts | 88° |
| 2026-05-08 02:08 | 35.25416 | -120.49774 | 19551 ft | 332 kts | 89° |
| 2026-05-08 02:08 | 35.25428 | -120.46937 | 19959 ft | 333 kts | 89° |
| 2026-05-08 02:08 | 35.25440 | -120.44083 | 20361 ft | 335 kts | 89° |
| 2026-05-08 02:09 | 35.25452 | -120.41215 | 20750 ft | 337 kts | 89° |
| 2026-05-08 02:09 | 35.25465 | -120.38333 | 21152 ft | 339 kts | 89° |
| 2026-05-08 02:09 | 35.25478 | -120.35455 | 21537 ft | 341 kts | 89° |
| 2026-05-08 02:09 | 35.25490 | -120.32538 | 22019 ft | 344 kts | 89° |
| 2026-05-08 02:10 | 35.25503 | -120.29600 | 22578 ft | 346 kts | 89° |
| 2026-05-08 02:10 | 35.25514 | -120.26630 | 23118 ft | 348 kts | 89° |
| 2026-05-08 02:10 | 35.25526 | -120.23692 | 23613 ft | 351 kts | 89° |
| 2026-05-08 02:10 | 35.25536 | -120.20684 | 24024 ft | 354 kts | 89° |
| 2026-05-08 02:11 | 35.25546 | -120.17655 | 24453 ft | 356 kts | 89° |
| 2026-05-08 02:11 | 35.25554 | -120.14612 | 24888 ft | 358 kts | 89° |
| 2026-05-08 02:11 | 35.25562 | -120.11555 | 25304 ft | 360 kts | 89° |
| 2026-05-08 02:11 | 35.25570 | -120.08523 | 25686 ft | 362 kts | 89° |
| 2026-05-08 02:12 | 35.25577 | -120.05397 | 25920 ft | 370 kts | 89° |
| 2026-05-08 02:12 | 35.25584 | -120.02186 | 25955 ft | 383 kts | 89° |
| 2026-05-08 02:12 | 35.25590 | -119.98855 | 25954 ft | 397 kts | 89° |
| 2026-05-08 02:12 | 35.25596 | -119.95460 | 25954 ft | 410 kts | 89° |
| 2026-05-08 02:13 | 35.25601 | -119.91905 | 25951 ft | 423 kts | 89° |
| 2026-05-08 02:13 | 35.25564 | -119.88257 | 26072 ft | 431 kts | 91° |
| 2026-05-08 02:13 | 35.25461 | -119.84602 | 26787 ft | 423 kts | 91° |
| 2026-05-08 02:13 | 35.25351 | -119.81086 | 27638 ft | 412 kts | 91° |
| 2026-05-08 02:14 | 35.25243 | -119.77630 | 28407 ft | 403 kts | 91° |
| 2026-05-08 02:14 | 35.25136 | -119.74210 | 28910 ft | 402 kts | 91° |
| 2026-05-08 02:14 | 35.25029 | -119.70780 | 29257 ft | 403 kts | 91° |
| 2026-05-08 02:14 | 35.24921 | -119.67331 | 29573 ft | 405 kts | 91° |
| 2026-05-08 02:15 | 35.24813 | -119.63914 | 29879 ft | 407 kts | 91° |
| 2026-05-08 02:15 | 35.24702 | -119.60431 | 30158 ft | 409 kts | 91° |
| 2026-05-08 02:15 | 35.24590 | -119.56941 | 30417 ft | 411 kts | 91° |
| 2026-05-08 02:15 | 35.24476 | -119.53442 | 30741 ft | 410 kts | 91° |
| 2026-05-08 02:16 | 35.24364 | -119.50000 | 31059 ft | 409 kts | 91° |
| 2026-05-08 02:16 | 35.24249 | -119.46514 | 31368 ft | 409 kts | 91° |
| 2026-05-08 02:16 | 35.24133 | -119.43028 | 31664 ft | 408 kts | 91° |
| 2026-05-08 02:16 | 35.24016 | -119.39552 | 31967 ft | 408 kts | 91° |
| 2026-05-08 02:17 | 35.23900 | -119.36124 | 32257 ft | 408 kts | 91° |
| 2026-05-08 02:17 | 35.23781 | -119.32656 | 32528 ft | 407 kts | 91° |
| 2026-05-08 02:17 | 35.23702 | -119.30354 | 32701 ft | 407 kts | 91° |
| 2026-05-08 02:17 | 35.23582 | -119.26883 | 32905 ft | 409 kts | 91° |
| 2026-05-08 02:18 | 35.23335 | -119.19807 | 32932 ft | 422 kts | 91° |
| 2026-05-08 02:18 | 35.23076 | -119.12547 | 32932 ft | 435 kts | 91° |
| 2026-05-08 02:19 | 35.22805 | -119.05037 | 32935 ft | 448 kts | 91° |
| 2026-05-08 02:19 | 35.22520 | -118.97304 | 32936 ft | 461 kts | 91° |
| 2026-05-08 02:20 | 35.22224 | -118.89410 | 32942 ft | 472 kts | 91° |
| 2026-05-08 02:20 | 35.21917 | -118.81389 | 32949 ft | 471 kts | 91° |
| 2026-05-08 02:21 | 35.21604 | -118.73361 | 33013 ft | 470 kts | 91° |
| 2026-05-08 02:21 | 35.21290 | -118.65405 | 33045 ft | 470 kts | 91° |
| 2026-05-08 02:22 | 35.20971 | -118.57453 | 33075 ft | 470 kts | 91° |
| 2026-05-08 02:22 | 35.20645 | -118.49479 | 33100 ft | 470 kts | 91° |
| 2026-05-08 02:23 | 35.20313 | -118.41468 | 33097 ft | 469 kts | 91° |
| 2026-05-08 02:23 | 35.19979 | -118.33541 | 33090 ft | 469 kts | 91° |
| 2026-05-08 02:24 | 35.19638 | -118.25548 | 33054 ft | 469 kts | 91° |
| 2026-05-08 02:24 | 35.19467 | -118.21602 | 32948 ft | 469 kts | 91° |
| 2026-05-08 02:24 | 35.19293 | -118.17616 | 32949 ft | 469 kts | 91° |
| 2026-05-08 02:25 | 35.18942 | -118.09633 | 32946 ft | 469 kts | 91° |
| 2026-05-08 02:25 | 35.18588 | -118.01717 | 32931 ft | 469 kts | 91° |
| 2026-05-08 02:26 | 35.18224 | -117.93736 | 32912 ft | 469 kts | 91° |
| 2026-05-08 02:26 | 35.17859 | -117.85812 | 32895 ft | 469 kts | 91° |
| 2026-05-08 02:27 | 35.17486 | -117.77839 | 32861 ft | 469 kts | 91° |
| 2026-05-08 02:27 | 35.17109 | -117.69875 | 32860 ft | 469 kts | 91° |
| 2026-05-08 02:28 | 35.16728 | -117.61957 | 32843 ft | 469 kts | 91° |
| 2026-05-08 02:28 | 35.16340 | -117.53973 | 32836 ft | 469 kts | 91° |
| 2026-05-08 02:29 | 35.15948 | -117.46045 | 32832 ft | 469 kts | 91° |
| 2026-05-08 02:29 | 35.15551 | -117.38099 | 32835 ft | 469 kts | 91° |
| 2026-05-08 02:30 | 35.15146 | -117.30117 | 32832 ft | 469 kts | 91° |
| 2026-05-08 02:30 | 35.14740 | -117.22194 | 32828 ft | 469 kts | 91° |
| 2026-05-08 02:31 | 35.14325 | -117.14209 | 32825 ft | 469 kts | 91° |
| 2026-05-08 02:31 | 35.13906 | -117.06273 | 32824 ft | 469 kts | 91° |
| 2026-05-08 02:32 | 35.13482 | -116.98320 | 32548 ft | 464 kts | 91° |
| 2026-05-08 02:32 | 35.13270 | -116.94375 | 31639 ft | 468 kts | 91° |
| 2026-05-08 02:32 | 35.13057 | -116.90429 | 30637 ft | 475 kts | 91° |
| 2026-05-08 02:33 | 35.12837 | -116.86372 | 29722 ft | 478 kts | 91° |
| 2026-05-08 02:33 | 35.12614 | -116.82317 | 29062 ft | 474 kts | 91° |
| 2026-05-08 02:33 | 35.12392 | -116.78303 | 28235 ft | 473 kts | 91° |
| 2026-05-08 02:33 | 35.12172 | -116.74335 | 27447 ft | 472 kts | 91° |
| 2026-05-08 02:34 | 35.11948 | -116.70340 | 26766 ft | 468 kts | 91° |
| 2026-05-08 02:34 | 35.11725 | -116.66375 | 26124 ft | 464 kts | 91° |
| 2026-05-08 02:34 | 35.11503 | -116.62449 | 25419 ft | 461 kts | 91° |
| 2026-05-08 02:34 | 35.11283 | -116.58543 | 24645 ft | 472 kts | 91° |
| 2026-05-08 02:35 | 35.11052 | -116.54465 | 24125 ft | 483 kts | 91° |
| 2026-05-08 02:35 | 35.10816 | -116.50359 | 23190 ft | 484 kts | 92° |
| 2026-05-08 02:35 | 35.10580 | -116.46282 | 22445 ft | 477 kts | 92° |
| 2026-05-08 02:35 | 35.10339 | -116.42304 | 21710 ft | 471 kts | 93° |
| 2026-05-08 02:36 | 35.09963 | -116.38358 | 20934 ft | 464 kts | 91° |
| 2026-05-08 02:36 | 35.10276 | -116.34486 | 20149 ft | 454 kts | 74° |
| 2026-05-08 02:36 | 35.11457 | -116.30996 | 19465 ft | 446 kts | 57° |
| 2026-05-08 02:36 | 35.13430 | -116.28122 | 19084 ft | 441 kts | 40° |
| 2026-05-08 02:37 | 35.16019 | -116.26124 | 18969 ft | 441 kts | 23° |
| 2026-05-08 02:37 | 35.18892 | -116.24758 | 18945 ft | 441 kts | 23° |
| 2026-05-08 02:37 | 35.21596 | -116.23060 | 18949 ft | 441 kts | 31° |
| 2026-05-08 02:37 | 35.24095 | -116.20883 | 18945 ft | 441 kts | 38° |
| 2026-05-08 02:38 | 35.26406 | -116.18402 | 18942 ft | 441 kts | 42° |
| 2026-05-08 02:38 | 35.28601 | -116.15767 | 18952 ft | 441 kts | 45° |
| 2026-05-08 02:38 | 35.30732 | -116.13045 | 18955 ft | 441 kts | 46° |
| 2026-05-08 02:38 | 35.32797 | -116.10319 | 18951 ft | 441 kts | 46° |
| 2026-05-08 02:39 | 35.34870 | -116.07531 | 18958 ft | 442 kts | 47° |
| 2026-05-08 02:39 | 35.36935 | -116.04723 | 18960 ft | 442 kts | 47° |
| 2026-05-08 02:39 | 35.38987 | -116.01917 | 18972 ft | 441 kts | 47° |
| 2026-05-08 02:39 | 35.41020 | -115.99127 | 18971 ft | 442 kts | 47° |
| 2026-05-08 02:40 | 35.43067 | -115.96311 | 18722 ft | 434 kts | 47° |
| 2026-05-08 02:40 | 35.45043 | -115.93589 | 17898 ft | 432 kts | 47° |
| 2026-05-08 02:40 | 35.47041 | -115.90833 | 16934 ft | 431 kts | 47° |
| 2026-05-08 02:40 | 35.49034 | -115.88081 | 16072 ft | 428 kts | 47° |
| 2026-05-08 02:41 | 35.51005 | -115.85357 | 15268 ft | 424 kts | 47° |
| 2026-05-08 02:41 | 35.52929 | -115.82696 | 14623 ft | 418 kts | 47° |
| 2026-05-08 02:41 | 35.54831 | -115.80061 | 14326 ft | 402 kts | 47° |
| 2026-05-08 02:41 | 35.56653 | -115.77536 | 14077 ft | 387 kts | 47° |
| 2026-05-08 02:42 | 35.58384 | -115.75136 | 13861 ft | 372 kts | 47° |
| 2026-05-08 02:42 | 35.60093 | -115.72801 | 13653 ft | 358 kts | 46° |
| 2026-05-08 02:42 | 35.61739 | -115.70576 | 13437 ft | 345 kts | 46° |
| 2026-05-08 02:42 | 35.63328 | -115.68431 | 13260 ft | 333 kts | 46° |
| 2026-05-08 02:43 | 35.64867 | -115.66352 | 13060 ft | 325 kts | 46° |
| 2026-05-08 02:43 | 35.66406 | -115.64276 | 13023 ft | 330 kts | 46° |
| 2026-05-08 02:43 | 35.67930 | -115.62217 | 13027 ft | 329 kts | 46° |
| 2026-05-08 02:43 | 35.69470 | -115.60135 | 13027 ft | 328 kts | 46° |
| 2026-05-08 02:44 | 35.71008 | -115.58053 | 13026 ft | 328 kts | 46° |
| 2026-05-08 02:44 | 35.72514 | -115.55978 | 13028 ft | 328 kts | 46° |
| 2026-05-08 02:44 | 35.74261 | -115.54227 | 13035 ft | 323 kts | 27° |
| 2026-05-08 02:44 | 35.76239 | -115.52911 | 13031 ft | 323 kts | 26° |
| 2026-05-08 02:45 | 35.78231 | -115.51613 | 13029 ft | 323 kts | 26° |
| 2026-05-08 02:45 | 35.80215 | -115.50300 | 13028 ft | 323 kts | 27° |
| 2026-05-08 02:45 | 35.82158 | -115.48985 | 13031 ft | 323 kts | 27° |
| 2026-05-08 02:45 | 35.84120 | -115.47637 | 13030 ft | 323 kts | 28° |
| 2026-05-08 02:46 | 35.86082 | -115.46275 | 13029 ft | 322 kts | 28° |
| 2026-05-08 02:46 | 35.88036 | -115.44911 | 13026 ft | 322 kts | 28° |
| 2026-05-08 02:46 | 35.89981 | -115.43549 | 12779 ft | 320 kts | 28° |
| 2026-05-08 02:46 | 35.91875 | -115.42226 | 12527 ft | 311 kts | 28° |
| 2026-05-08 02:47 | 35.93722 | -115.40937 | 12322 ft | 301 kts | 27° |
| 2026-05-08 02:47 | 35.95529 | -115.39676 | 12009 ft | 296 kts | 27° |
| 2026-05-08 02:47 | 35.97316 | -115.38428 | 11626 ft | 293 kts | 27° |
| 2026-05-08 02:47 | 35.99091 | -115.37189 | 11224 ft | 292 kts | 27° |
| 2026-05-08 02:48 | 36.00854 | -115.35939 | 11029 ft | 290 kts | 32° |
| 2026-05-08 02:48 | 36.02186 | -115.34122 | 11006 ft | 295 kts | 62° |
| 2026-05-08 02:48 | 36.02628 | -115.31637 | 10670 ft | 303 kts | 92° |
| 2026-05-08 02:48 | 36.02232 | -115.29066 | 10218 ft | 305 kts | 102° |
| 2026-05-08 02:49 | 36.01749 | -115.26514 | 9809 ft | 305 kts | 100° |
| 2026-05-08 02:49 | 36.01378 | -115.23945 | 9410 ft | 302 kts | 97° |
| 2026-05-08 02:49 | 36.01112 | -115.21405 | 9092 ft | 300 kts | 95° |
| 2026-05-08 02:49 | 36.00905 | -115.18846 | 9026 ft | 300 kts | 94° |
| 2026-05-08 02:50 | 36.00730 | -115.16260 | 9008 ft | 301 kts | 93° |
| 2026-05-08 02:50 | 36.00576 | -115.13667 | 8611 ft | 302 kts | 93° |
| 2026-05-08 02:50 | 36.00434 | -115.11115 | 8228 ft | 300 kts | 93° |
| 2026-05-08 02:50 | 36.00298 | -115.08562 | 8049 ft | 296 kts | 93° |
| 2026-05-08 02:51 | 36.00165 | -115.06025 | 8023 ft | 296 kts | 93° |
| 2026-05-08 02:51 | 36.00032 | -115.03478 | 8020 ft | 294 kts | 93° |
| 2026-05-08 02:51 | 35.99942 | -115.01026 | 8019 ft | 277 kts | 91° |
| 2026-05-08 02:51 | 35.99920 | -114.98700 | 7981 ft | 261 kts | 90° |
| 2026-05-08 02:52 | 35.99913 | -114.96533 | 7943 ft | 251 kts | 89° |
| 2026-05-08 02:52 | 35.99909 | -114.94382 | 7647 ft | 250 kts | 90° |
| 2026-05-08 02:52 | 35.99906 | -114.92231 | 7304 ft | 251 kts | 90° |
| 2026-05-08 02:52 | 35.99901 | -114.90076 | 6999 ft | 251 kts | 90° |
| 2026-05-08 02:53 | 35.99895 | -114.87919 | 6699 ft | 250 kts | 90° |
| 2026-05-08 02:53 | 36.00086 | -114.85839 | 6478 ft | 242 kts | 73° |
| 2026-05-08 02:53 | 36.00793 | -114.84033 | 6298 ft | 226 kts | 49° |
| 2026-05-08 02:53 | 36.01966 | -114.82860 | 6030 ft | 211 kts | 21° |
| 2026-05-08 02:54 | 36.03345 | -114.82514 | 5608 ft | 202 kts | 353° |
| 2026-05-08 02:54 | 36.04623 | -114.83083 | 5170 ft | 196 kts | 314° |
| 2026-05-08 02:54 | 36.05323 | -114.84535 | 5018 ft | 199 kts | 290° |
| 2026-05-08 02:54 | 36.05774 | -114.86148 | 4978 ft | 202 kts | 287° |
| 2026-05-08 02:55 | 36.06202 | -114.87811 | 4976 ft | 203 kts | 287° |
| 2026-05-08 02:55 | 36.07019 | -114.90906 | 4972 ft | 177 kts | 287° |
| 2026-05-08 02:55 | 36.07294 | -114.92374 | 4996 ft | 173 kts | 275° |
| 2026-05-08 02:56 | 36.07349 | -114.93822 | 5022 ft | 171 kts | 270° |
| 2026-05-08 02:56 | 36.07359 | -114.95309 | 4745 ft | 172 kts | 269° |
| 2026-05-08 02:56 | 36.07360 | -114.96776 | 4479 ft | 172 kts | 269° |
| 2026-05-08 02:56 | 36.07361 | -114.98264 | 4247 ft | 173 kts | 269° |
| 2026-05-08 02:57 | 36.07362 | -114.99754 | 4027 ft | 173 kts | 269° |
| 2026-05-08 02:57 | 36.07362 | -115.01245 | 3815 ft | 173 kts | 269° |
| 2026-05-08 02:57 | 36.07363 | -115.02711 | 3602 ft | 173 kts | 268° |
| 2026-05-08 02:57 | 36.07362 | -115.04192 | 3386 ft | 172 kts | 269° |
| 2026-05-08 02:58 | 36.07362 | -115.05660 | 3180 ft | 164 kts | 269° |
| 2026-05-08 02:58 | 36.07363 | -115.07019 | 3000 ft | 154 kts | 269° |
| 2026-05-08 02:58 | 36.07363 | -115.08330 | 2796 ft | 155 kts | 270° |
| 2026-05-08 02:58 | 36.07363 | -115.09676 | 2575 ft | 157 kts | 269° |
| 2026-05-08 02:59 | 36.07363 | -115.11016 | 2358 ft | 155 kts | 269° |
| 2026-05-08 02:59 | 36.07363 | -115.12345 | 2140 ft | 154 kts | 268° |
| 2026-05-08 02:59 | 36.07364 | -115.13588 | 2086 ft | 115 kts | 271° |
| 2026-05-08 02:59 | 36.07368 | -115.14202 | 2112 ft | 42 kts | 269° |
| 2026-05-08 03:00 | 36.07463 | -115.14450 | 2123 ft | 31 kts | 338° |
| 2026-05-08 03:00 | 36.07562 | -115.14609 | 2133 ft | 12 kts | 281° |
| 2026-05-08 03:00 | 36.07560 | -115.14629 | 2134 ft | 0 kts | 255° |
| 2026-05-08 03:00 | 36.07556 | -115.14648 | 2134 ft | 11 kts | 255° |